sensor_id;sensor_type;location;lat;lon;timestamp;temperature;humidity
3792;DHT22;1911;53.768;11.474;2023-06-22T00:01:55;17.60;99.90
3792;DHT22;1911;53.768;11.474;2023-06-22T00:04:21;17.60;99.90
3792;DHT22;1911;53.768;11.474;2023-06-22T00:06:46;17.50;99.90
3792;DHT22;1911;53.768;11.474;2023-06-22T00:09:12;17.50;99.90
3792;DHT22;1911;53.768;11.474;2023-06-22T00:11:38;17.50;99.90
3792;DHT22;1911;53.768;11.474;2023-06-22T00:14:04;17.50;99.90
3792;DHT22;1911;53.768;11.474;2023-06-22T00:16:31;17.50;99.90
3792;DHT22;1911;53.768;11.474;2023-06-22T00:18:58;17.40;99.90
3792;DHT22;1911;53.768;11.474;2023-06-22T00:21:26;17.40;99.90
3792;DHT22;1911;53.768;11.474;2023-06-22T00:23:51;17.30;99.90
3792;DHT22;1911;53.768;11.474;2023-06-22T00:26:17;17.30;99.90
3792;DHT22;1911;53.768;11.474;2023-06-22T00:28:43;17.30;99.90
3792;DHT22;1911;53.768;11.474;2023-06-22T00:31:08;17.30;99.90
3792;DHT22;1911;53.768;11.474;2023-06-22T00:33:34;17.30;99.90
3792;DHT22;1911;53.768;11.474;2023-06-22T00:36:00;17.30;99.90
3792;DHT22;1911;53.768;11.474;2023-06-22T00:38:25;17.20;99.90
3792;DHT22;1911;53.768;11.474;2023-06-22T00:40:51;17.20;99.90
3792;DHT22;1911;53.768;11.474;2023-06-22T00:43:17;17.20;99.90
3792;DHT22;1911;53.768;11.474;2023-06-22T00:45:42;17.20;99.90
3792;DHT22;1911;53.768;11.474;2023-06-22T00:48:08;17.20;99.90
3792;DHT22;1911;53.768;11.474;2023-06-22T00:50:34;17.20;99.90
3792;DHT22;1911;53.768;11.474;2023-06-22T00:53:05;17.20;99.90
3792;DHT22;1911;53.768;11.474;2023-06-22T00:55:42;17.20;99.90
3792;DHT22;1911;53.768;11.474;2023-06-22T00:58:13;17.20;99.90
3792;DHT22;1911;53.768;11.474;2023-06-22T01:00:42;17.20;99.90
3792;DHT22;1911;53.768;11.474;2023-06-22T01:03:08;17.20;99.90
3792;DHT22;1911;53.768;11.474;2023-06-22T01:05:37;17.20;99.90
3792;DHT22;1911;53.768;11.474;2023-06-22T01:08:16;17.20;99.90
3792;DHT22;1911;53.768;11.474;2023-06-22T01:10:45;17.20;99.90
3792;DHT22;1911;53.768;11.474;2023-06-22T01:13:23;17.20;99.90
3792;DHT22;1911;53.768;11.474;2023-06-22T01:16:18;17.10;99.90
3792;DHT22;1911;53.768;11.474;2023-06-22T01:18:46;17.20;99.90
3792;DHT22;1911;53.768;11.474;2023-06-22T01:21:16;17.20;99.90
3792;DHT22;1911;53.768;11.474;2023-06-22T01:24:02;17.20;99.90
3792;DHT22;1911;53.768;11.474;2023-06-22T01:27:25;17.20;99.90
3792;DHT22;1911;53.768;11.474;2023-06-22T01:29:30;17.20;99.90
3792;DHT22;1911;53.768;11.474;2023-06-22T01:31:59;17.10;99.90
3792;DHT22;1911;53.768;11.474;2023-06-22T01:34:27;17.10;99.90
3792;DHT22;1911;53.768;11.474;2023-06-22T01:36:54;17.20;99.90
3792;DHT22;1911;53.768;11.474;2023-06-22T01:39:21;17.20;99.90
3792;DHT22;1911;53.768;11.474;2023-06-22T01:41:48;17.20;99.90
3792;DHT22;1911;53.768;11.474;2023-06-22T01:44:13;17.20;99.90
3792;DHT22;1911;53.768;11.474;2023-06-22T01:46:39;17.20;99.90
3792;DHT22;1911;53.768;11.474;2023-06-22T01:49:06;17.10;99.90
3792;DHT22;1911;53.768;11.474;2023-06-22T01:51:32;17.20;99.90
3792;DHT22;1911;53.768;11.474;2023-06-22T01:53:58;17.10;99.90
3792;DHT22;1911;53.768;11.474;2023-06-22T01:56:24;17.10;99.90
3792;DHT22;1911;53.768;11.474;2023-06-22T02:01:43;17.00;99.90
3792;DHT22;1911;53.768;11.474;2023-06-22T02:04:13;17.00;99.90
3792;DHT22;1911;53.768;11.474;2023-06-22T02:06:43;17.00;99.90
3792;DHT22;1911;53.768;11.474;2023-06-22T02:09:12;17.00;99.90
3792;DHT22;1911;53.768;11.474;2023-06-22T02:11:40;17.00;99.90
3792;DHT22;1911;53.768;11.474;2023-06-22T02:14:07;16.90;99.90
3792;DHT22;1911;53.768;11.474;2023-06-22T02:16:33;16.90;99.90
3792;DHT22;1911;53.768;11.474;2023-06-22T02:19:01;16.90;99.90
3792;DHT22;1911;53.768;11.474;2023-06-22T02:21:31;16.90;99.90
3792;DHT22;1911;53.768;11.474;2023-06-22T02:23:58;16.90;99.90
3792;DHT22;1911;53.768;11.474;2023-06-22T02:26:25;16.90;99.90
3792;DHT22;1911;53.768;11.474;2023-06-22T02:28:51;16.90;99.90
3792;DHT22;1911;53.768;11.474;2023-06-22T02:31:17;16.90;99.90
3792;DHT22;1911;53.768;11.474;2023-06-22T02:33:43;16.90;99.90
3792;DHT22;1911;53.768;11.474;2023-06-22T02:36:09;16.90;99.90
3792;DHT22;1911;53.768;11.474;2023-06-22T02:38:37;16.90;99.90
3792;DHT22;1911;53.768;11.474;2023-06-22T02:41:03;16.80;99.90
3792;DHT22;1911;53.768;11.474;2023-06-22T02:43:29;16.80;99.90
3792;DHT22;1911;53.768;11.474;2023-06-22T02:45:55;16.80;99.90
3792;DHT22;1911;53.768;11.474;2023-06-22T02:48:21;16.80;99.90
3792;DHT22;1911;53.768;11.474;2023-06-22T02:50:46;16.70;99.90
3792;DHT22;1911;53.768;11.474;2023-06-22T02:53:12;16.60;99.90
3792;DHT22;1911;53.768;11.474;2023-06-22T02:55:37;16.60;99.90
3792;DHT22;1911;53.768;11.474;2023-06-22T02:58:05;16.50;99.90
3792;DHT22;1911;53.768;11.474;2023-06-22T03:00:31;16.50;99.90
3792;DHT22;1911;53.768;11.474;2023-06-22T03:02:57;16.40;99.90
3792;DHT22;1911;53.768;11.474;2023-06-22T03:05:23;16.30;99.90
3792;DHT22;1911;53.768;11.474;2023-06-22T03:07:49;16.20;99.90
3792;DHT22;1911;53.768;11.474;2023-06-22T03:10:15;16.00;99.90
3792;DHT22;1911;53.768;11.474;2023-06-22T03:12:41;15.90;99.90
3792;DHT22;1911;53.768;11.474;2023-06-22T03:15:09;15.90;99.90
3792;DHT22;1911;53.768;11.474;2023-06-22T03:17:36;15.90;99.90
3792;DHT22;1911;53.768;11.474;2023-06-22T03:20:02;15.90;99.90
3792;DHT22;1911;53.768;11.474;2023-06-22T03:22:39;15.90;99.90
3792;DHT22;1911;53.768;11.474;2023-06-22T03:25:05;16.00;99.90
3792;DHT22;1911;53.768;11.474;2023-06-22T03:27:36;16.00;99.90
3792;DHT22;1911;53.768;11.474;2023-06-22T03:30:03;16.00;99.90
3792;DHT22;1911;53.768;11.474;2023-06-22T03:32:28;16.00;99.90
3792;DHT22;1911;53.768;11.474;2023-06-22T03:34:54;16.10;99.90
3792;DHT22;1911;53.768;11.474;2023-06-22T03:37:20;16.10;99.90
3792;DHT22;1911;53.768;11.474;2023-06-22T03:39:45;16.10;99.90
3792;DHT22;1911;53.768;11.474;2023-06-22T03:42:11;16.10;99.90
3792;DHT22;1911;53.768;11.474;2023-06-22T03:44:36;16.20;99.90
3792;DHT22;1911;53.768;11.474;2023-06-22T03:47:04;16.30;99.90
3792;DHT22;1911;53.768;11.474;2023-06-22T03:49:29;16.30;99.90
3792;DHT22;1911;53.768;11.474;2023-06-22T03:51:55;16.50;99.90
3792;DHT22;1911;53.768;11.474;2023-06-22T03:54:20;16.70;99.90
3792;DHT22;1911;53.768;11.474;2023-06-22T03:56:46;16.80;99.90
3792;DHT22;1911;53.768;11.474;2023-06-22T03:59:12;16.90;99.90
3792;DHT22;1911;53.768;11.474;2023-06-22T04:01:37;16.90;99.90
3792;DHT22;1911;53.768;11.474;2023-06-22T04:04:03;17.00;99.90
3792;DHT22;1911;53.768;11.474;2023-06-22T04:06:28;17.00;99.90
3792;DHT22;1911;53.768;11.474;2023-06-22T04:08:54;17.10;99.90
3792;DHT22;1911;53.768;11.474;2023-06-22T04:11:20;17.20;99.90
3792;DHT22;1911;53.768;11.474;2023-06-22T04:13:45;17.30;99.90
3792;DHT22;1911;53.768;11.474;2023-06-22T04:16:11;17.30;99.90
3792;DHT22;1911;53.768;11.474;2023-06-22T04:18:36;17.40;99.90
3792;DHT22;1911;53.768;11.474;2023-06-22T04:21:02;17.60;99.90
3792;DHT22;1911;53.768;11.474;2023-06-22T04:23:28;17.80;99.90
3792;DHT22;1911;53.768;11.474;2023-06-22T04:25:54;18.10;99.90
3792;DHT22;1911;53.768;11.474;2023-06-22T04:28:21;18.30;99.90
3792;DHT22;1911;53.768;11.474;2023-06-22T04:30:47;18.40;99.90
3792;DHT22;1911;53.768;11.474;2023-06-22T04:33:14;18.50;99.90
3792;DHT22;1911;53.768;11.474;2023-06-22T04:35:40;18.60;99.90
3792;DHT22;1911;53.768;11.474;2023-06-22T04:38:08;18.70;99.90
3792;DHT22;1911;53.768;11.474;2023-06-22T04:40:34;18.80;99.90
3792;DHT22;1911;53.768;11.474;2023-06-22T04:42:59;18.80;99.90
3792;DHT22;1911;53.768;11.474;2023-06-22T04:45:28;18.80;99.90
3792;DHT22;1911;53.768;11.474;2023-06-22T04:47:54;18.90;99.90
3792;DHT22;1911;53.768;11.474;2023-06-22T04:50:20;19.00;99.90
3792;DHT22;1911;53.768;11.474;2023-06-22T04:52:47;19.20;99.90
3792;DHT22;1911;53.768;11.474;2023-06-22T04:55:13;19.30;99.90
3792;DHT22;1911;53.768;11.474;2023-06-22T04:57:46;19.50;99.90
3792;DHT22;1911;53.768;11.474;2023-06-22T05:00:16;19.70;99.90
3792;DHT22;1911;53.768;11.474;2023-06-22T05:02:44;19.90;99.90
3792;DHT22;1911;53.768;11.474;2023-06-22T05:05:10;20.10;99.90
3792;DHT22;1911;53.768;11.474;2023-06-22T05:07:39;20.30;99.90
3792;DHT22;1911;53.768;11.474;2023-06-22T05:10:09;20.40;99.90
3792;DHT22;1911;53.768;11.474;2023-06-22T05:12:35;20.40;99.90
3792;DHT22;1911;53.768;11.474;2023-06-22T05:15:01;20.40;99.90
3792;DHT22;1911;53.768;11.474;2023-06-22T05:17:27;20.50;99.90
3792;DHT22;1911;53.768;11.474;2023-06-22T05:19:53;20.40;99.90
3792;DHT22;1911;53.768;11.474;2023-06-22T05:22:19;20.50;99.90
3792;DHT22;1911;53.768;11.474;2023-06-22T05:24:45;20.60;99.90
3792;DHT22;1911;53.768;11.474;2023-06-22T05:27:10;20.80;99.90
3792;DHT22;1911;53.768;11.474;2023-06-22T05:29:36;21.10;99.90
3792;DHT22;1911;53.768;11.474;2023-06-22T05:32:03;21.90;99.90
3792;DHT22;1911;53.768;11.474;2023-06-22T05:34:28;23.10;68.90
3792;DHT22;1911;53.768;11.474;2023-06-22T05:36:54;24.20;1.00
3792;DHT22;1911;53.768;11.474;2023-06-22T05:39:20;25.00;1.00
3792;DHT22;1911;53.768;11.474;2023-06-22T05:41:46;25.70;1.00
3792;DHT22;1911;53.768;11.474;2023-06-22T05:44:12;26.60;1.00
3792;DHT22;1911;53.768;11.474;2023-06-22T05:46:40;27.60;99.90
3792;DHT22;1911;53.768;11.474;2023-06-22T05:49:10;28.00;99.90
3792;DHT22;1911;53.768;11.474;2023-06-22T05:51:35;28.70;84.30
3792;DHT22;1911;53.768;11.474;2023-06-22T05:54:01;28.80;22.40
3792;DHT22;1911;53.768;11.474;2023-06-22T05:56:27;28.80;5.10
3792;DHT22;1911;53.768;11.474;2023-06-22T05:58:53;28.60;1.00
3792;DHT22;1911;53.768;11.474;2023-06-22T06:01:19;27.90;1.00
3792;DHT22;1911;53.768;11.474;2023-06-22T06:03:44;27.00;1.00
3792;DHT22;1911;53.768;11.474;2023-06-22T06:06:10;25.30;1.00
3792;DHT22;1911;53.768;11.474;2023-06-22T06:08:39;25.30;1.00
3792;DHT22;1911;53.768;11.474;2023-06-22T06:11:05;25.60;1.00
3792;DHT22;1911;53.768;11.474;2023-06-22T06:13:31;26.60;1.00
3792;DHT22;1911;53.768;11.474;2023-06-22T06:15:57;27.40;1.00
3792;DHT22;1911;53.768;11.474;2023-06-22T06:18:22;27.40;1.00
3792;DHT22;1911;53.768;11.474;2023-06-22T06:20:48;28.50;1.00
3792;DHT22;1911;53.768;11.474;2023-06-22T06:23:14;29.60;1.00
3792;DHT22;1911;53.768;11.474;2023-06-22T06:25:39;30.00;1.00
3792;DHT22;1911;53.768;11.474;2023-06-22T06:28:05;30.20;1.00
3792;DHT22;1911;53.768;11.474;2023-06-22T06:30:30;30.10;1.00
3792;DHT22;1911;53.768;11.474;2023-06-22T06:32:56;30.70;1.00
3792;DHT22;1911;53.768;11.474;2023-06-22T06:35:22;31.40;1.00
3792;DHT22;1911;53.768;11.474;2023-06-22T06:37:49;31.30;1.00
3792;DHT22;1911;53.768;11.474;2023-06-22T06:40:17;31.40;1.00
3792;DHT22;1911;53.768;11.474;2023-06-22T06:42:44;32.00;1.00
3792;DHT22;1911;53.768;11.474;2023-06-22T06:45:19;32.50;1.00
3792;DHT22;1911;53.768;11.474;2023-06-22T06:47:45;32.50;1.00
3792;DHT22;1911;53.768;11.474;2023-06-22T06:50:11;32.40;1.00
3792;DHT22;1911;53.768;11.474;2023-06-22T06:52:37;32.30;1.00
3792;DHT22;1911;53.768;11.474;2023-06-22T06:55:03;32.70;1.00
3792;DHT22;1911;53.768;11.474;2023-06-22T06:57:40;33.20;1.00
3792;DHT22;1911;53.768;11.474;2023-06-22T07:00:12;33.20;1.00
3792;DHT22;1911;53.768;11.474;2023-06-22T07:02:43;33.10;1.00
3792;DHT22;1911;53.768;11.474;2023-06-22T07:05:10;33.00;1.00
3792;DHT22;1911;53.768;11.474;2023-06-22T07:07:35;33.30;1.00
3792;DHT22;1911;53.768;11.474;2023-06-22T07:10:01;33.20;1.00
3792;DHT22;1911;53.768;11.474;2023-06-22T07:12:28;33.70;1.00
3792;DHT22;1911;53.768;11.474;2023-06-22T07:15:02;34.30;1.00
3792;DHT22;1911;53.768;11.474;2023-06-22T07:17:28;34.50;1.00
3792;DHT22;1911;53.768;11.474;2023-06-22T07:19:53;34.50;1.00
3792;DHT22;1911;53.768;11.474;2023-06-22T07:22:19;34.20;1.00
3792;DHT22;1911;53.768;11.474;2023-06-22T07:24:44;34.10;1.00
3792;DHT22;1911;53.768;11.474;2023-06-22T07:27:10;34.10;1.00
3792;DHT22;1911;53.768;11.474;2023-06-22T07:29:37;34.20;1.00
3792;DHT22;1911;53.768;11.474;2023-06-22T07:32:06;34.00;1.00
3792;DHT22;1911;53.768;11.474;2023-06-22T07:34:32;34.00;1.00
3792;DHT22;1911;53.768;11.474;2023-06-22T07:36:59;34.20;1.00
3792;DHT22;1911;53.768;11.474;2023-06-22T07:39:24;34.30;1.00
3792;DHT22;1911;53.768;11.474;2023-06-22T07:41:51;34.40;1.00
3792;DHT22;1911;53.768;11.474;2023-06-22T07:44:16;34.60;1.00
3792;DHT22;1911;53.768;11.474;2023-06-22T07:46:42;34.60;1.00
3792;DHT22;1911;53.768;11.474;2023-06-22T07:49:08;34.60;1.00
3792;DHT22;1911;53.768;11.474;2023-06-22T07:51:34;34.80;1.00
3792;DHT22;1911;53.768;11.474;2023-06-22T07:53:59;35.10;1.00
3792;DHT22;1911;53.768;11.474;2023-06-22T07:56:25;35.20;1.00
3792;DHT22;1911;53.768;11.474;2023-06-22T07:58:51;35.50;1.00
3792;DHT22;1911;53.768;11.474;2023-06-22T08:01:17;35.00;1.00
3792;DHT22;1911;53.768;11.474;2023-06-22T08:03:44;34.50;1.00
3792;DHT22;1911;53.768;11.474;2023-06-22T08:06:10;34.10;1.00
3792;DHT22;1911;53.768;11.474;2023-06-22T08:08:36;33.80;1.00
3792;DHT22;1911;53.768;11.474;2023-06-22T08:11:02;34.00;1.00
3792;DHT22;1911;53.768;11.474;2023-06-22T08:13:28;34.20;1.00
3792;DHT22;1911;53.768;11.474;2023-06-22T08:15:53;34.10;1.00
3792;DHT22;1911;53.768;11.474;2023-06-22T08:18:19;34.00;1.00
3792;DHT22;1911;53.768;11.474;2023-06-22T08:20:44;34.10;1.00
3792;DHT22;1911;53.768;11.474;2023-06-22T08:23:10;33.90;99.90
3792;DHT22;1911;53.768;11.474;2023-06-22T08:25:36;33.80;99.90
3792;DHT22;1911;53.768;11.474;2023-06-22T08:28:03;33.30;99.90
3792;DHT22;1911;53.768;11.474;2023-06-22T08:30:28;33.00;99.90
3792;DHT22;1911;53.768;11.474;2023-06-22T08:32:54;33.10;99.90
3792;DHT22;1911;53.768;11.474;2023-06-22T08:35:21;33.10;99.90
3792;DHT22;1911;53.768;11.474;2023-06-22T08:37:47;33.10;99.90
3792;DHT22;1911;53.768;11.474;2023-06-22T08:40:17;33.00;99.90
3792;DHT22;1911;53.768;11.474;2023-06-22T08:42:45;32.20;99.90
3792;DHT22;1911;53.768;11.474;2023-06-22T08:45:11;31.90;99.90
3792;DHT22;1911;53.768;11.474;2023-06-22T08:47:37;31.60;99.90
3792;DHT22;1911;53.768;11.474;2023-06-22T08:50:03;31.40;99.90
3792;DHT22;1911;53.768;11.474;2023-06-22T08:52:29;31.10;99.90
3792;DHT22;1911;53.768;11.474;2023-06-22T08:54:54;30.50;99.90
3792;DHT22;1911;53.768;11.474;2023-06-22T08:57:21;29.50;99.90
3792;DHT22;1911;53.768;11.474;2023-06-22T08:59:46;28.30;99.90
3792;DHT22;1911;53.768;11.474;2023-06-22T09:02:12;27.50;99.90
3792;DHT22;1911;53.768;11.474;2023-06-22T09:04:38;26.90;99.90
3792;DHT22;1911;53.768;11.474;2023-06-22T09:07:03;26.70;99.90
3792;DHT22;1911;53.768;11.474;2023-06-22T09:09:29;26.90;99.90
3792;DHT22;1911;53.768;11.474;2023-06-22T09:11:55;27.10;99.90
3792;DHT22;1911;53.768;11.474;2023-06-22T09:14:20;27.30;99.90
3792;DHT22;1911;53.768;11.474;2023-06-22T09:16:46;27.20;99.90
3792;DHT22;1911;53.768;11.474;2023-06-22T09:19:12;27.20;99.90
3792;DHT22;1911;53.768;11.474;2023-06-22T09:21:38;27.20;99.90
3792;DHT22;1911;53.768;11.474;2023-06-22T09:24:04;27.30;99.90
3792;DHT22;1911;53.768;11.474;2023-06-22T09:26:30;27.60;99.90
3792;DHT22;1911;53.768;11.474;2023-06-22T09:28:55;27.80;99.90
3792;DHT22;1911;53.768;11.474;2023-06-22T09:31:21;28.00;99.90
3792;DHT22;1911;53.768;11.474;2023-06-22T09:33:53;28.00;99.90
3792;DHT22;1911;53.768;11.474;2023-06-22T09:36:20;27.80;99.90
3792;DHT22;1911;53.768;11.474;2023-06-22T09:38:45;27.50;99.90
3792;DHT22;1911;53.768;11.474;2023-06-22T09:41:11;27.20;99.90
3792;DHT22;1911;53.768;11.474;2023-06-22T09:43:36;26.80;99.90
3792;DHT22;1911;53.768;11.474;2023-06-22T09:46:02;26.90;99.90
3792;DHT22;1911;53.768;11.474;2023-06-22T09:48:28;27.00;99.90
3792;DHT22;1911;53.768;11.474;2023-06-22T09:50:55;27.10;99.90
3792;DHT22;1911;53.768;11.474;2023-06-22T09:53:21;27.30;99.90
3792;DHT22;1911;53.768;11.474;2023-06-22T09:55:47;27.20;99.90
3792;DHT22;1911;53.768;11.474;2023-06-22T09:58:12;27.10;99.90
3792;DHT22;1911;53.768;11.474;2023-06-22T10:00:38;27.10;99.90
3792;DHT22;1911;53.768;11.474;2023-06-22T10:03:04;27.20;99.90
3792;DHT22;1911;53.768;11.474;2023-06-22T10:05:29;27.30;99.90
3792;DHT22;1911;53.768;11.474;2023-06-22T10:07:55;27.20;99.90
3792;DHT22;1911;53.768;11.474;2023-06-22T10:10:20;27.10;99.90
3792;DHT22;1911;53.768;11.474;2023-06-22T10:12:47;27.10;99.90
3792;DHT22;1911;53.768;11.474;2023-06-22T10:15:14;27.30;99.90
3792;DHT22;1911;53.768;11.474;2023-06-22T10:17:39;27.40;99.90
3792;DHT22;1911;53.768;11.474;2023-06-22T10:20:06;27.30;99.90
3792;DHT22;1911;53.768;11.474;2023-06-22T10:22:42;27.10;99.90
3792;DHT22;1911;53.768;11.474;2023-06-22T10:25:09;27.20;99.90
3792;DHT22;1911;53.768;11.474;2023-06-22T10:27:35;27.30;99.90
3792;DHT22;1911;53.768;11.474;2023-06-22T10:30:01;27.30;99.90
3792;DHT22;1911;53.768;11.474;2023-06-22T10:32:27;27.20;99.90
3792;DHT22;1911;53.768;11.474;2023-06-22T10:34:56;27.30;99.90
3792;DHT22;1911;53.768;11.474;2023-06-22T10:37:22;27.40;99.90
3792;DHT22;1911;53.768;11.474;2023-06-22T10:39:47;27.50;99.90
3792;DHT22;1911;53.768;11.474;2023-06-22T10:42:13;27.50;99.90
3792;DHT22;1911;53.768;11.474;2023-06-22T10:44:39;27.50;99.90
3792;DHT22;1911;53.768;11.474;2023-06-22T10:47:06;27.60;99.90
3792;DHT22;1911;53.768;11.474;2023-06-22T10:49:32;27.80;99.90
3792;DHT22;1911;53.768;11.474;2023-06-22T10:51:58;27.90;99.90
3792;DHT22;1911;53.768;11.474;2023-06-22T10:54:23;28.10;99.90
3792;DHT22;1911;53.768;11.474;2023-06-22T10:56:49;28.10;99.90
3792;DHT22;1911;53.768;11.474;2023-06-22T10:59:14;28.20;99.90
3792;DHT22;1911;53.768;11.474;2023-06-22T11:01:40;28.20;99.90
3792;DHT22;1911;53.768;11.474;2023-06-22T11:04:05;28.20;99.90
3792;DHT22;1911;53.768;11.474;2023-06-22T11:06:31;28.30;99.90
3792;DHT22;1911;53.768;11.474;2023-06-22T11:08:57;28.50;99.90
3792;DHT22;1911;53.768;11.474;2023-06-22T11:11:25;28.70;99.90
3792;DHT22;1911;53.768;11.474;2023-06-22T11:13:50;28.90;99.90
3792;DHT22;1911;53.768;11.474;2023-06-22T11:16:16;28.90;99.90
3792;DHT22;1911;53.768;11.474;2023-06-22T11:18:42;28.80;99.90
3792;DHT22;1911;53.768;11.474;2023-06-22T11:21:07;28.60;99.90
3792;DHT22;1911;53.768;11.474;2023-06-22T11:23:33;28.30;99.90
3792;DHT22;1911;53.768;11.474;2023-06-22T11:25:58;28.20;99.90
3792;DHT22;1911;53.768;11.474;2023-06-22T11:28:24;28.10;99.90
3792;DHT22;1911;53.768;11.474;2023-06-22T11:30:49;28.10;99.90
3792;DHT22;1911;53.768;11.474;2023-06-22T11:33:15;27.90;99.90
3792;DHT22;1911;53.768;11.474;2023-06-22T11:35:40;28.00;99.90
3792;DHT22;1911;53.768;11.474;2023-06-22T11:38:06;28.20;99.90
3792;DHT22;1911;53.768;11.474;2023-06-22T11:40:33;28.50;99.90
3792;DHT22;1911;53.768;11.474;2023-06-22T11:43:01;28.60;99.90
3792;DHT22;1911;53.768;11.474;2023-06-22T11:45:27;28.70;99.90
3792;DHT22;1911;53.768;11.474;2023-06-22T11:47:52;28.80;99.90
3792;DHT22;1911;53.768;11.474;2023-06-22T11:50:18;28.70;99.90
3792;DHT22;1911;53.768;11.474;2023-06-22T11:52:43;28.60;99.90
3792;DHT22;1911;53.768;11.474;2023-06-22T11:55:09;28.60;99.90
3792;DHT22;1911;53.768;11.474;2023-06-22T11:57:36;28.80;99.90
3792;DHT22;1911;53.768;11.474;2023-06-22T12:00:03;28.70;99.90
3792;DHT22;1911;53.768;11.474;2023-06-22T12:02:39;28.60;99.90
3792;DHT22;1911;53.768;11.474;2023-06-22T12:05:05;28.80;99.90
3792;DHT22;1911;53.768;11.474;2023-06-22T12:07:31;29.00;99.90
3792;DHT22;1911;53.768;11.474;2023-06-22T12:09:56;29.00;99.90
3792;DHT22;1911;53.768;11.474;2023-06-22T12:12:22;29.00;99.90
3792;DHT22;1911;53.768;11.474;2023-06-22T12:14:47;28.90;99.90
3792;DHT22;1911;53.768;11.474;2023-06-22T12:17:13;28.90;99.90
3792;DHT22;1911;53.768;11.474;2023-06-22T12:19:38;28.90;99.90
3792;DHT22;1911;53.768;11.474;2023-06-22T12:22:04;29.20;99.90
3792;DHT22;1911;53.768;11.474;2023-06-22T12:24:29;29.40;99.90
3792;DHT22;1911;53.768;11.474;2023-06-22T12:26:55;29.50;99.90
3792;DHT22;1911;53.768;11.474;2023-06-22T12:29:21;29.60;99.90
3792;DHT22;1911;53.768;11.474;2023-06-22T12:31:46;29.50;99.90
3792;DHT22;1911;53.768;11.474;2023-06-22T12:34:12;29.60;99.90
3792;DHT22;1911;53.768;11.474;2023-06-22T12:36:37;29.50;99.90
3792;DHT22;1911;53.768;11.474;2023-06-22T12:39:03;29.50;99.90
3792;DHT22;1911;53.768;11.474;2023-06-22T12:41:29;29.40;99.90
3792;DHT22;1911;53.768;11.474;2023-06-22T12:43:54;29.50;99.90
3792;DHT22;1911;53.768;11.474;2023-06-22T12:46:20;29.70;99.90
3792;DHT22;1911;53.768;11.474;2023-06-22T12:48:45;29.10;99.90
3792;DHT22;1911;53.768;11.474;2023-06-22T12:51:11;29.40;99.90
3792;DHT22;1911;53.768;11.474;2023-06-22T12:53:36;29.30;99.90
3792;DHT22;1911;53.768;11.474;2023-06-22T12:56:02;28.80;99.90
3792;DHT22;1911;53.768;11.474;2023-06-22T12:58:28;28.50;99.90
3792;DHT22;1911;53.768;11.474;2023-06-22T13:00:53;28.10;99.90
3792;DHT22;1911;53.768;11.474;2023-06-22T13:03:19;27.80;99.90
3792;DHT22;1911;53.768;11.474;2023-06-22T13:05:44;28.40;99.90
3792;DHT22;1911;53.768;11.474;2023-06-22T13:08:10;28.40;99.90
3792;DHT22;1911;53.768;11.474;2023-06-22T13:10:36;28.70;99.90
3792;DHT22;1911;53.768;11.474;2023-06-22T13:13:02;28.00;99.90
3792;DHT22;1911;53.768;11.474;2023-06-22T13:15:28;27.50;99.90
3792;DHT22;1911;53.768;11.474;2023-06-22T13:17:54;27.90;99.90
3792;DHT22;1911;53.768;11.474;2023-06-22T13:20:20;28.20;99.90
3792;DHT22;1911;53.768;11.474;2023-06-22T13:22:46;27.90;99.90
3792;DHT22;1911;53.768;11.474;2023-06-22T13:25:11;27.70;99.90
3792;DHT22;1911;53.768;11.474;2023-06-22T13:27:39;27.70;99.90
3792;DHT22;1911;53.768;11.474;2023-06-22T13:30:05;27.30;99.90
3792;DHT22;1911;53.768;11.474;2023-06-22T13:32:30;27.40;99.90
3792;DHT22;1911;53.768;11.474;2023-06-22T13:34:56;27.50;99.90
3792;DHT22;1911;53.768;11.474;2023-06-22T13:37:22;27.50;99.90
3792;DHT22;1911;53.768;11.474;2023-06-22T13:39:47;27.50;99.90
3792;DHT22;1911;53.768;11.474;2023-06-22T13:42:14;27.50;99.90
3792;DHT22;1911;53.768;11.474;2023-06-22T13:44:39;27.60;99.90
3792;DHT22;1911;53.768;11.474;2023-06-22T13:47:06;28.10;99.90
3792;DHT22;1911;53.768;11.474;2023-06-22T13:49:32;28.20;99.90
3792;DHT22;1911;53.768;11.474;2023-06-22T13:51:57;28.20;99.90
3792;DHT22;1911;53.768;11.474;2023-06-22T13:54:23;27.90;99.90
3792;DHT22;1911;53.768;11.474;2023-06-22T13:56:48;27.90;99.90
3792;DHT22;1911;53.768;11.474;2023-06-22T13:59:14;27.60;99.90
3792;DHT22;1911;53.768;11.474;2023-06-22T14:01:40;27.70;99.90
3792;DHT22;1911;53.768;11.474;2023-06-22T14:04:07;27.50;99.90
3792;DHT22;1911;53.768;11.474;2023-06-22T14:06:32;27.20;99.90
3792;DHT22;1911;53.768;11.474;2023-06-22T14:08:58;27.10;99.90
3792;DHT22;1911;53.768;11.474;2023-06-22T14:11:24;27.10;99.90
3792;DHT22;1911;53.768;11.474;2023-06-22T14:13:50;26.90;99.90
3792;DHT22;1911;53.768;11.474;2023-06-22T14:16:16;26.70;99.90
3792;DHT22;1911;53.768;11.474;2023-06-22T14:18:41;26.40;99.90
3792;DHT22;1911;53.768;11.474;2023-06-22T14:21:07;26.50;99.90
3792;DHT22;1911;53.768;11.474;2023-06-22T14:23:33;26.60;99.90
3792;DHT22;1911;53.768;11.474;2023-06-22T14:25:59;26.50;99.90
3792;DHT22;1911;53.768;11.474;2023-06-22T14:28:24;26.60;99.90
3792;DHT22;1911;53.768;11.474;2023-06-22T14:30:50;26.40;99.90
3792;DHT22;1911;53.768;11.474;2023-06-22T14:33:16;26.80;99.90
3792;DHT22;1911;53.768;11.474;2023-06-22T14:35:41;26.90;99.90
3792;DHT22;1911;53.768;11.474;2023-06-22T14:38:07;27.30;99.90
3792;DHT22;1911;53.768;11.474;2023-06-22T14:40:32;27.40;99.90
3792;DHT22;1911;53.768;11.474;2023-06-22T14:42:58;27.40;99.90
3792;DHT22;1911;53.768;11.474;2023-06-22T14:45:26;27.10;99.90
3792;DHT22;1911;53.768;11.474;2023-06-22T14:47:52;26.90;99.90
3792;DHT22;1911;53.768;11.474;2023-06-22T14:50:18;26.90;99.90
3792;DHT22;1911;53.768;11.474;2023-06-22T14:52:43;27.20;99.90
3792;DHT22;1911;53.768;11.474;2023-06-22T14:55:09;27.10;99.90
3792;DHT22;1911;53.768;11.474;2023-06-22T14:57:35;27.20;99.90
3792;DHT22;1911;53.768;11.474;2023-06-22T15:00:00;27.10;99.90
3792;DHT22;1911;53.768;11.474;2023-06-22T15:02:27;27.10;99.90
3792;DHT22;1911;53.768;11.474;2023-06-22T15:04:53;27.40;99.90
3792;DHT22;1911;53.768;11.474;2023-06-22T15:07:19;27.20;99.90
3792;DHT22;1911;53.768;11.474;2023-06-22T15:09:45;27.30;99.90
3792;DHT22;1911;53.768;11.474;2023-06-22T15:12:11;27.20;99.90
3792;DHT22;1911;53.768;11.474;2023-06-22T15:14:41;27.00;99.90
3792;DHT22;1911;53.768;11.474;2023-06-22T15:17:08;26.90;99.90
3792;DHT22;1911;53.768;11.474;2023-06-22T15:19:37;27.00;99.90
3792;DHT22;1911;53.768;11.474;2023-06-22T15:22:07;26.90;99.90
3792;DHT22;1911;53.768;11.474;2023-06-22T15:24:36;26.90;99.90
3792;DHT22;1911;53.768;11.474;2023-06-22T15:27:02;26.80;99.90
3792;DHT22;1911;53.768;11.474;2023-06-22T15:29:27;26.60;99.90
3792;DHT22;1911;53.768;11.474;2023-06-22T15:31:55;26.40;99.90
3792;DHT22;1911;53.768;11.474;2023-06-22T15:34:21;26.50;99.90
3792;DHT22;1911;53.768;11.474;2023-06-22T15:36:46;26.40;99.90
3792;DHT22;1911;53.768;11.474;2023-06-22T15:39:12;26.50;99.90
3792;DHT22;1911;53.768;11.474;2023-06-22T15:41:41;26.50;99.90
3792;DHT22;1911;53.768;11.474;2023-06-22T15:44:07;26.20;99.90
3792;DHT22;1911;53.768;11.474;2023-06-22T15:46:33;26.10;99.90
3792;DHT22;1911;53.768;11.474;2023-06-22T15:49:01;26.10;99.90